createdAt,value
2023-05-07T00:03:28.960Z,52.30
2023-05-07T00:08:31.537Z,52.50
2023-05-07T00:13:36.530Z,53.40
2023-05-07T00:18:38.989Z,52.90
2023-05-07T00:23:41.175Z,53.10
2023-05-07T00:28:43.546Z,53.20
2023-05-07T00:33:45.811Z,53.50
2023-05-07T00:38:48.011Z,53.80
2023-05-07T00:43:52.607Z,54.00
2023-05-07T00:48:55.383Z,54.00
2023-05-07T00:53:57.676Z,54.40
2023-05-07T00:59:00.192Z,54.20
2023-05-07T01:04:02.798Z,54.30
2023-05-07T01:09:06.061Z,54.30
2023-05-07T01:14:09.958Z,54.80
2023-05-07T01:19:15.480Z,54.60
2023-05-07T01:24:19.024Z,54.60
2023-05-07T01:29:21.498Z,54.90
2023-05-07T01:34:26.988Z,54.90
2023-05-07T01:39:31.294Z,54.90
2023-05-07T01:44:33.841Z,54.80
2023-05-07T01:49:36.202Z,55.00
2023-05-07T01:54:38.483Z,55.10
2023-05-07T01:59:41.123Z,55.10
2023-05-07T02:04:43.368Z,55.20
2023-05-07T02:09:46.037Z,55.10
2023-05-07T02:14:48.692Z,54.80
2023-05-07T02:19:50.961Z,54.70
2023-05-07T02:24:53.197Z,54.90
2023-05-07T02:29:55.466Z,54.80
2023-05-07T02:34:57.723Z,54.80
2023-05-07T02:40:00.046Z,54.90
2023-05-07T02:45:02.377Z,54.90
2023-05-07T02:50:06.935Z,54.70
2023-05-07T02:55:09.753Z,54.90
2023-05-07T03:00:15.334Z,55.10
2023-05-07T03:05:24.369Z,54.60
2023-05-07T03:10:26.552Z,54.80
2023-05-07T03:15:28.832Z,55.20
2023-05-07T03:20:31.238Z,55.00
2023-05-07T03:25:33.933Z,55.10
2023-05-07T03:30:36.365Z,55.40
2023-05-07T03:35:38.779Z,54.80
2023-05-07T03:40:41.768Z,55.00
2023-05-07T03:45:44.174Z,55.40
2023-05-07T03:50:51.348Z,55.00
2023-05-07T03:55:54.843Z,55.00
2023-05-07T04:00:57.303Z,55.30
2023-05-07T04:06:03.453Z,55.30
2023-05-07T04:11:07.852Z,55.50
2023-05-07T04:16:12.407Z,55.40
2023-05-07T04:21:16.640Z,55.50
2023-05-07T04:26:19.482Z,55.30
2023-05-07T04:31:23.007Z,55.20
2023-05-07T04:36:30.262Z,55.30
2023-05-07T04:41:37.874Z,55.40
2023-05-07T04:46:42.229Z,54.80
2023-05-07T04:51:44.943Z,55.00
2023-05-07T04:56:48.482Z,55.10
2023-05-07T05:01:51.153Z,54.90
2023-05-07T05:06:54.108Z,54.50
2023-05-07T05:11:57.280Z,54.70
2023-05-07T05:16:59.809Z,54.70
2023-05-07T05:22:02.413Z,55.00
2023-05-07T05:27:06.107Z,55.20
2023-05-07T05:32:08.443Z,54.90
2023-05-07T05:37:10.839Z,54.90
2023-05-07T05:42:13.703Z,54.70
2023-05-07T05:47:16.294Z,55.00
2023-05-07T05:52:18.961Z,54.90
2023-05-07T05:57:22.384Z,53.90
2023-05-07T06:02:25.048Z,54.30
2023-05-07T06:07:28.131Z,53.80
2023-05-07T06:12:31.000Z,54.90
2023-05-07T06:17:33.481Z,54.40
2023-05-07T06:22:35.834Z,54.40
2023-05-07T06:27:40.671Z,53.40
2023-05-07T06:32:43.187Z,53.40
2023-05-07T06:37:47.391Z,54.30
2023-05-07T06:42:54.897Z,54.00
2023-05-07T06:48:05.763Z,53.30
2023-05-07T06:53:14.782Z,53.90
2023-05-07T06:58:17.706Z,53.90
2023-05-07T07:03:20.156Z,56.40
2023-05-07T07:08:23.669Z,57.30
2023-05-07T07:13:27.522Z,52.40
2023-05-07T07:18:30.110Z,51.70
2023-05-07T07:23:34.695Z,50.80
2023-05-07T07:28:45.314Z,51.00
2023-05-07T07:33:53.036Z,47.00
2023-05-07T07:38:56.136Z,47.90
2023-05-07T07:43:58.613Z,48.80
2023-05-07T07:49:01.160Z,47.40
2023-05-07T07:54:04.190Z,45.90
2023-05-07T07:59:09.554Z,47.80
2023-05-07T08:04:14.969Z,47.30
2023-05-07T08:09:18.565Z,47.80
2023-05-07T08:14:22.680Z,47.80
2023-05-07T08:19:24.987Z,48.00
2023-05-07T08:24:27.617Z,48.30
2023-05-07T08:29:29.961Z,48.50
2023-05-07T08:34:32.301Z,48.00
2023-05-07T08:39:37.828Z,49.00
2023-05-07T08:44:48.424Z,49.10
2023-05-07T08:49:52.932Z,49.80
2023-05-07T08:54:55.993Z,50.30
2023-05-07T08:59:59.916Z,50.60
2023-05-07T09:05:02.264Z,50.10
2023-05-07T09:10:05.661Z,50.30
2023-05-07T09:15:10.576Z,50.00
2023-05-07T09:20:13.711Z,50.60
2023-05-07T09:25:16.576Z,50.60
2023-05-07T09:30:18.894Z,51.80
2023-05-07T09:35:22.836Z,51.40
2023-05-07T09:40:32.090Z,51.40
2023-05-07T09:45:39.535Z,51.80
2023-05-07T09:50:50.344Z,52.40
2023-05-07T09:55:55.738Z,52.80
2023-05-07T10:00:58.665Z,55.20
2023-05-07T10:06:02.189Z,56.00
2023-05-07T10:11:07.044Z,56.10
2023-05-07T10:16:10.025Z,56.10
2023-05-07T10:26:31.053Z,56.20
2023-05-07T10:36:59.380Z,56.80
2023-05-07T10:42:17.740Z,58.30
2023-05-07T10:47:25.722Z,58.20
2023-05-07T10:52:32.670Z,59.30
2023-05-07T10:57:55.519Z,59.10
2023-05-07T11:08:12.874Z,60.40
2023-05-07T11:13:46.737Z,59.90
2023-05-07T11:18:58.337Z,59.60
2023-05-07T11:24:10.293Z,59.10
2023-05-07T11:29:26.910Z,59.50
2023-05-07T11:34:34.931Z,60.40
2023-05-07T11:39:37.770Z,60.90
2023-05-07T11:44:45.237Z,61.50
2023-05-07T11:49:52.296Z,61.90
2023-05-07T11:54:57.168Z,61.80
2023-05-07T12:00:02.853Z,62.10
2023-05-07T12:05:24.723Z,61.20
2023-05-07T12:10:27.134Z,60.00
2023-05-07T12:15:29.325Z,59.20
2023-05-07T12:20:31.690Z,59.80
2023-05-07T12:25:39.206Z,59.70
2023-05-07T12:30:42.247Z,57.60
2023-05-07T12:35:45.220Z,57.50
2023-05-07T12:40:51.885Z,57.20
2023-05-07T12:45:56.769Z,56.40
2023-05-07T12:51:01.796Z,55.20
2023-05-07T12:56:06.999Z,54.80
2023-05-07T13:01:11.178Z,55.10
2023-05-07T13:06:13.919Z,55.30
2023-05-07T13:11:16.642Z,55.50
2023-05-07T13:21:24.172Z,55.70
2023-05-07T13:26:27.392Z,56.80
2023-05-07T13:31:29.654Z,57.30
2023-05-07T13:36:34.118Z,56.90
2023-05-07T13:41:36.336Z,56.90
2023-05-07T13:46:38.558Z,57.20
2023-05-07T13:51:40.820Z,56.60
2023-05-07T13:56:44.065Z,56.80
2023-05-07T14:01:46.443Z,57.20
2023-05-07T14:06:48.670Z,56.80
2023-05-07T14:11:52.387Z,57.50
2023-05-07T14:16:54.647Z,57.40
2023-05-07T14:21:59.240Z,57.40
2023-05-07T14:27:01.763Z,58.10
2023-05-07T14:32:04.545Z,58.50
2023-05-07T14:37:06.744Z,58.60
2023-05-07T14:42:08.983Z,58.40
2023-05-07T14:47:11.266Z,59.40
2023-05-07T14:52:13.783Z,59.60
2023-05-07T14:57:19.468Z,59.00
2023-05-07T15:02:21.989Z,59.20
2023-05-07T15:07:24.267Z,60.60
2023-05-07T15:12:27.408Z,60.30
2023-05-07T15:17:29.684Z,60.40
2023-05-07T15:22:32.387Z,61.30
2023-05-07T15:27:34.655Z,61.30
2023-05-07T15:32:37.221Z,62.20
2023-05-07T15:37:39.635Z,62.50
2023-05-07T15:42:41.843Z,62.20
2023-05-07T15:47:44.120Z,62.50
2023-05-07T15:52:47.599Z,63.00
2023-05-07T15:57:50.319Z,62.20
2023-05-07T16:02:52.965Z,62.50
2023-05-07T16:07:55.981Z,62.80
2023-05-07T16:12:58.650Z,62.60
2023-05-07T16:18:01.058Z,63.50
2023-05-07T16:23:03.817Z,64.00
2023-05-07T16:28:06.302Z,64.00
2023-05-07T16:33:08.569Z,64.20
2023-05-07T16:38:11.702Z,64.40
2023-05-07T16:43:13.989Z,65.00
2023-05-07T16:48:16.396Z,65.10
2023-05-07T16:53:18.684Z,65.00
2023-05-07T16:58:21.265Z,64.60
2023-05-07T17:03:24.008Z,64.50
2023-05-07T17:08:26.375Z,65.20
2023-05-07T17:13:29.121Z,65.10
2023-05-07T17:18:31.401Z,65.00
2023-05-07T17:23:33.598Z,65.30
2023-05-07T17:28:35.925Z,64.70
2023-05-07T17:33:38.268Z,64.80
2023-05-07T17:38:40.705Z,64.50
2023-05-07T17:43:42.966Z,63.90
2023-05-07T17:48:45.252Z,64.10
2023-05-07T17:53:47.488Z,64.60
2023-05-07T18:03:55.969Z,63.70
2023-05-07T18:08:58.370Z,64.00
2023-05-07T18:14:00.894Z,63.50
2023-05-07T18:19:03.123Z,63.10
2023-05-07T18:24:05.598Z,63.60
2023-05-07T18:29:07.789Z,64.90
2023-05-07T18:34:10.553Z,65.20
2023-05-07T18:39:12.800Z,64.50
2023-05-07T18:44:15.544Z,64.30
2023-05-07T18:49:17.931Z,63.90
2023-05-07T18:54:20.148Z,64.10
2023-05-07T18:59:23.122Z,63.90
2023-05-07T19:04:25.568Z,62.90
2023-05-07T19:09:27.871Z,62.30
2023-05-07T19:14:30.201Z,62.20
2023-05-07T19:19:32.376Z,62.70
2023-05-07T19:24:34.616Z,63.10
2023-05-07T19:29:36.845Z,63.10
2023-05-07T19:34:39.045Z,63.40
2023-05-07T19:39:41.364Z,64.00
2023-05-07T19:44:43.757Z,64.10
2023-05-07T19:49:46.426Z,64.40
2023-05-07T19:54:48.790Z,64.30
2023-05-07T19:59:51.650Z,64.30
2023-05-07T20:04:55.322Z,64.60
2023-05-07T20:09:57.508Z,65.00
2023-05-07T20:14:59.753Z,64.50
2023-05-07T20:20:02.001Z,64.70
2023-05-07T20:25:06.241Z,65.30
2023-05-07T20:30:09.044Z,64.40
2023-05-07T20:35:11.428Z,64.40
2023-05-07T20:40:14.402Z,64.40
2023-05-07T20:45:17.487Z,64.30
2023-05-07T20:50:22.087Z,64.00
2023-05-07T20:55:24.371Z,63.80
2023-05-07T21:00:27.026Z,64.30
2023-05-07T21:05:32.459Z,64.80
2023-05-07T21:10:35.149Z,64.60
2023-05-07T21:15:37.394Z,64.50
2023-05-07T21:20:39.830Z,64.10
2023-05-07T21:25:42.524Z,64.20
2023-05-07T21:30:44.967Z,64.10
2023-05-07T21:35:47.258Z,63.80
2023-05-07T21:40:49.609Z,64.10
2023-05-07T21:45:51.993Z,63.10
2023-05-07T21:51:03.243Z,63.70
2023-05-07T21:56:06.695Z,63.00
2023-05-07T22:01:12.627Z,63.30
2023-05-07T22:06:18.115Z,63.30
2023-05-07T22:11:21.263Z,62.90
2023-05-07T22:16:23.530Z,63.40
2023-05-07T22:21:25.812Z,63.20
2023-05-07T22:26:28.005Z,63.40
2023-05-07T22:31:30.419Z,63.50
2023-05-07T22:36:32.672Z,63.30
2023-05-07T22:41:35.045Z,63.20
2023-05-07T22:46:37.242Z,63.00
2023-05-07T22:51:39.540Z,63.00
2023-05-07T22:56:42.092Z,62.90
2023-05-07T23:01:45.542Z,62.90
2023-05-07T23:06:48.200Z,62.90
2023-05-07T23:11:50.502Z,62.90
2023-05-07T23:16:53.275Z,62.90
2023-05-07T23:21:55.667Z,62.90
2023-05-07T23:26:57.907Z,62.80
2023-05-07T23:32:00.685Z,62.80
2023-05-07T23:37:03.070Z,62.80
2023-05-07T23:42:05.447Z,62.90
2023-05-07T23:47:07.664Z,62.80
2023-05-07T23:52:09.906Z,62.60
2023-05-07T23:57:12.300Z,62.80
